Time;durP1;ratioP1;P1;durP2;ratioP2;P2;SDS_P1;SDS_P2;PMS_P1;PMS_P2;Temp;Humidity;BMP_temperature;BMP_pressure;BME280_temperature;BME280_humidity;BME280_pressure;Samples;Min_cycle;Max_cycle;Signal;HPM_P1;HPM_P2
2021/08/15 00:01:28;;;;;;;15.40;6.87;;;;;;;;;;5112105;28;20196;-77
2021/08/15 00:03:55;;;;;;;15.00;5.97;;;;;;;;;;5112294;28;20284;-77
2021/08/15 00:06:22;;;;;;;11.90;6.07;;;;;;;;;;5112238;28;20395;-77
2021/08/15 00:08:51;;;;;;;11.43;5.67;;;;;;;;;;5112295;28;20309;-77
2021/08/15 00:11:18;;;;;;;9.10;5.63;;;;;;;;;;5111903;28;20316;-77
2021/08/15 00:13:45;;;;;;;10.77;5.43;;;;;;;;;;5112445;28;20288;-77
2021/08/15 00:16:12;;;;;;;12.33;5.87;;;;;;;;;;5112643;28;20289;-77
2021/08/15 00:18:40;;;;;;;13.03;6.03;;;;;;;;;;5112076;28;20675;-77
2021/08/15 00:21:07;;;;;;;10.07;5.60;;;;;;;;;;5112203;28;20293;-77
2021/08/15 00:23:34;;;;;;;11.87;6.00;;;;;;;;;;5112195;27;20292;-78
2021/08/15 00:26:03;;;;;;;11.43;6.00;;;;;;;;;;5111537;28;20294;-77
2021/08/15 00:28:30;;;;;;;18.30;6.57;;;;;;;;;;5112302;28;20202;-77
2021/08/15 00:30:57;;;;;;;10.33;6.03;;;;;;;;;;5111910;28;20204;-77
2021/08/15 00:33:24;;;;;;;12.30;6.70;;;;;;;;;;5111784;28;20208;-77
2021/08/15 00:35:51;;;;;;;16.47;6.57;;;;;;;;;;5111740;28;20289;-77
2021/08/15 00:38:18;;;;;;;16.97;7.57;;;;;;;;;;5112078;28;20288;-77
2021/08/15 00:40:46;;;;;;;15.70;7.00;;;;;;;;;;5111800;28;20225;-77
2021/08/15 00:43:14;;;;;;;13.90;6.87;;;;;;;;;;5111811;28;20200;-77
2021/08/15 00:45:41;;;;;;;13.13;6.47;;;;;;;;;;5112053;28;20314;-77
2021/08/15 00:48:10;;;;;;;10.87;6.27;;;;;;;;;;5111997;28;20636;-76
2021/08/15 00:50:38;;;;;;;11.13;6.63;;;;;;;;;;5111883;28;20212;-77
2021/08/15 00:53:05;;;;;;;16.80;7.57;;;;;;;;;;5110340;28;20308;-77
2021/08/15 00:55:33;;;;;;;12.73;6.87;;;;;;;;;;5111489;28;20320;-77
2021/08/15 00:58:00;;;;;;;13.47;6.77;;;;;;;;;;5111798;28;20897;-77
2021/08/15 01:00:28;;;;;;;13.13;7.10;;;;;;;;;;5115372;28;20237;-77
2021/08/15 01:02:56;;;;;;;11.67;6.57;;;;;;;;;;5115341;28;20285;-76
2021/08/15 01:05:23;;;;;;;11.03;6.40;;;;;;;;;;5115385;28;20230;-77
2021/08/15 01:07:50;;;;;;;13.53;6.50;;;;;;;;;;5115354;28;20580;-77
2021/08/15 01:10:18;;;;;;;11.20;6.30;;;;;;;;;;5115073;28;20207;-76
2021/08/15 01:12:46;;;;;;;13.37;6.97;;;;;;;;;;5115058;28;20312;-77
2021/08/15 01:15:13;;;;;;;15.87;6.60;;;;;;;;;;5115146;27;20756;-77
2021/08/15 01:17:42;;;;;;;14.60;7.20;;;;;;;;;;5115397;28;20296;-77
2021/08/15 01:20:10;;;;;;;12.83;7.00;;;;;;;;;;5115306;28;20267;-77
2021/08/15 01:22:39;;;;;;;14.93;6.57;;;;;;;;;;5113601;28;20229;-77
2021/08/15 01:25:07;;;;;;;12.67;7.03;;;;;;;;;;5133738;27;20208;-76
2021/08/15 01:27:37;;;;;;;12.40;6.97;;;;;;;;;;5135704;27;20197;-77
2021/08/15 01:30:08;;;;;;;12.07;6.87;;;;;;;;;;5135582;27;20232;-77
2021/08/15 01:32:35;;;;;;;12.60;7.07;;;;;;;;;;5135445;27;20308;-77
2021/08/15 01:35:03;;;;;;;11.70;6.53;;;;;;;;;;5135601;27;20295;-76
2021/08/15 01:37:30;;;;;;;16.47;6.87;;;;;;;;;;5135279;27;20204;-77
2021/08/15 01:40:01;;;;;;;11.20;6.93;;;;;;;;;;5135012;27;20283;-77
2021/08/15 01:42:29;;;;;;;13.90;6.90;;;;;;;;;;5135224;27;20208;-77
2021/08/15 01:44:56;;;;;;;12.93;6.70;;;;;;;;;;5135378;27;20200;-77
2021/08/15 01:47:25;;;;;;;13.53;7.13;;;;;;;;;;5135129;27;20751;-76
2021/08/15 01:49:52;;;;;;;12.40;6.33;;;;;;;;;;5135203;27;20276;-77
2021/08/15 01:52:19;;;;;;;12.23;6.87;;;;;;;;;;5134665;27;20733;-76
2021/08/15 01:54:47;;;;;;;12.80;7.30;;;;;;;;;;5128525;27;20742;-77
2021/08/15 01:57:14;;;;;;;13.03;7.30;;;;;;;;;;5135011;27;20646;-77
2021/08/15 01:59:41;;;;;;;17.57;10.00;;;;;;;;;;5134851;27;20197;-77
2021/08/15 02:02:08;;;;;;;18.70;9.87;;;;;;;;;;5134956;27;20232;-76
2021/08/15 02:04:37;;;;;;;20.90;11.27;;;;;;;;;;5134981;27;20284;-76
2021/08/15 02:07:05;;;;;;;23.20;11.93;;;;;;;;;;5134786;27;20368;-77
2021/08/15 02:09:33;;;;;;;23.23;11.83;;;;;;;;;;5134387;27;20217;-77
2021/08/15 02:12:01;;;;;;;21.67;11.60;;;;;;;;;;5134141;27;20763;-77
2021/08/15 02:14:29;;;;;;;20.87;10.93;;;;;;;;;;5134692;27;20587;-76
2021/08/15 02:16:56;;;;;;;21.30;11.17;;;;;;;;;;5134863;27;20197;-77
2021/08/15 02:19:23;;;;;;;21.33;10.20;;;;;;;;;;5134859;27;20652;-76
2021/08/15 02:21:52;;;;;;;19.83;9.83;;;;;;;;;;5134116;27;20755;-77
2021/08/15 02:24:19;;;;;;;14.33;8.00;;;;;;;;;;5134311;27;20296;-76
2021/08/15 02:26:46;;;;;;;12.73;7.70;;;;;;;;;;5134470;27;20193;-78
2021/08/15 02:29:13;;;;;;;11.63;6.70;;;;;;;;;;5134391;27;20201;-77
2021/08/15 02:31:40;;;;;;;11.10;6.40;;;;;;;;;;5134751;27;20243;-77
2021/08/15 02:34:08;;;;;;;13.97;7.43;;;;;;;;;;5134203;27;20292;-76
2021/08/15 02:36:35;;;;;;;14.07;7.07;;;;;;;;;;5133841;27;20288;-77
2021/08/15 02:39:03;;;;;;;17.10;8.20;;;;;;;;;;5134114;27;20288;-77
2021/08/15 02:41:31;;;;;;;14.00;7.73;;;;;;;;;;5134538;27;20640;-77
2021/08/15 02:43:58;;;;;;;17.43;8.77;;;;;;;;;;5134470;27;20276;-77
2021/08/15 02:46:25;;;;;;;17.43;7.67;;;;;;;;;;5134299;27;20670;-77
2021/08/15 02:48:52;;;;;;;16.03;7.57;;;;;;;;;;5134123;27;20302;-77
2021/08/15 02:51:19;;;;;;;15.93;8.03;;;;;;;;;;5133958;27;20196;-77
2021/08/15 02:53:46;;;;;;;21.13;8.00;;;;;;;;;;5133842;27;20316;-77
2021/08/15 02:56:15;;;;;;;16.37;7.83;;;;;;;;;;5133987;27;20291;-77
2021/08/15 02:58:42;;;;;;;15.63;7.63;;;;;;;;;;5115058;27;20226;-77
2021/08/15 03:01:09;;;;;;;19.03;8.10;;;;;;;;;;5113235;28;20636;-77
2021/08/15 03:03:38;;;;;;;19.97;8.10;;;;;;;;;;5113329;28;20198;-77
2021/08/15 03:06:05;;;;;;;18.60;8.03;;;;;;;;;;5112846;28;20563;-77
2021/08/15 03:08:32;;;;;;;16.57;8.67;;;;;;;;;;5113329;28;20259;-77
2021/08/15 03:11:00;;;;;;;16.87;8.40;;;;;;;;;;5113375;28;20225;-77
2021/08/15 03:13:28;;;;;;;18.93;8.43;;;;;;;;;;5113019;28;20309;-77
2021/08/15 03:15:55;;;;;;;16.30;7.90;;;;;;;;;;5112910;28;20949;-77
2021/08/15 03:18:22;;;;;;;17.40;8.37;;;;;;;;;;5112911;28;20732;-77
2021/08/15 03:20:50;;;;;;;22.30;9.17;;;;;;;;;;5112555;28;20276;-77
2021/08/15 03:23:17;;;;;;;16.40;8.03;;;;;;;;;;5112765;28;20638;-77
2021/08/15 03:25:44;;;;;;;18.40;9.00;;;;;;;;;;5132390;27;20296;-77
2021/08/15 03:28:11;;;;;;;13.57;8.53;;;;;;;;;;5133721;27;20300;-76
2021/08/15 03:30:40;;;;;;;19.17;9.23;;;;;;;;;;5133365;27;20289;-78
2021/08/15 03:33:07;;;;;;;17.70;9.10;;;;;;;;;;5133290;27;20320;-77
2021/08/15 03:35:34;;;;;;;17.30;8.43;;;;;;;;;;5133173;27;20228;-77
2021/08/15 03:38:01;;;;;;;15.83;7.93;;;;;;;;;;5133494;27;20197;-77
2021/08/15 03:40:28;;;;;;;14.97;7.53;;;;;;;;;;5133331;27;20568;-78
2021/08/15 03:42:55;;;;;;;16.73;8.67;;;;;;;;;;5133276;27;20201;-77
2021/08/15 03:45:23;;;;;;;15.67;8.03;;;;;;;;;;5133257;27;20331;-77
2021/08/15 03:47:52;;;;;;;16.03;8.30;;;;;;;;;;5133069;27;20208;-76
2021/08/15 03:50:19;;;;;;;13.27;8.17;;;;;;;;;;5132807;27;20233;-77
2021/08/15 03:52:46;;;;;;;14.23;8.57;;;;;;;;;;5133049;27;20213;-76
2021/08/15 03:55:14;;;;;;;14.97;8.47;;;;;;;;;;5132725;27;20232;-77
2021/08/15 03:57:42;;;;;;;15.90;8.43;;;;;;;;;;5131378;27;20345;-76
2021/08/15 04:00:11;;;;;;;17.10;8.13;;;;;;;;;;5112433;28;20288;-76
2021/08/15 04:02:39;;;;;;;14.90;8.47;;;;;;;;;;5112300;28;20276;-76
2021/08/15 04:05:09;;;;;;;13.97;7.67;;;;;;;;;;5112043;28;20284;-76
2021/08/15 04:07:37;;;;;;;15.83;8.57;;;;;;;;;;5112285;28;20289;-76
2021/08/15 04:10:08;;;;;;;17.13;8.00;;;;;;;;;;5112508;28;20317;-76
2021/08/15 04:12:36;;;;;;;14.93;7.80;;;;;;;;;;5112335;28;20228;-76
2021/08/15 04:15:05;;;;;;;15.30;7.83;;;;;;;;;;5112234;28;20292;-76
2021/08/15 04:17:33;;;;;;;13.93;7.90;;;;;;;;;;5112117;28;20297;-76
2021/08/15 04:20:01;;;;;;;12.13;7.93;;;;;;;;;;5112355;28;20591;-76
2021/08/15 04:22:30;;;;;;;17.93;8.67;;;;;;;;;;5112519;28;20193;-76
2021/08/15 04:24:58;;;;;;;15.23;7.30;;;;;;;;;;5117927;28;20288;-76
2021/08/15 04:27:25;;;;;;;15.40;7.73;;;;;;;;;;5132880;27;20235;-76
2021/08/15 04:29:53;;;;;;;16.23;7.83;;;;;;;;;;5132622;27;20288;-76
2021/08/15 04:32:20;;;;;;;15.90;7.87;;;14.60;99.90;;;;;;5132346;27;20682;-76
2021/08/15 04:34:47;;;;;;;14.47;7.77;;;14.70;99.90;;;;;;5135753;27;20315;-76
2021/08/15 04:37:16;;;;;;;14.67;7.60;;;14.60;99.90;;;;;;5136484;27;20201;-76
2021/08/15 04:39:45;;;;;;;14.77;8.00;;;14.60;99.90;;;;;;5136627;27;20315;-76
2021/08/15 04:42:12;;;;;;;12.67;7.73;;;14.50;99.90;;;;;;5136592;27;20288;-76
2021/08/15 04:44:39;;;;;;;14.23;7.10;;;14.50;99.90;;;;;;5136574;27;20694;-76
2021/08/15 04:47:06;;;;;;;16.00;7.70;;;14.50;99.90;;;;;;5136321;27;20288;-76
2021/08/15 04:49:33;;;;;;;13.53;7.43;;;14.50;99.90;;;;;;5136469;27;20637;-76
2021/08/15 04:52:00;;;;;;;13.90;7.87;;;14.50;99.90;;;;;;5136631;27;20287;-76
2021/08/15 04:54:27;;;;;;;12.40;7.47;;;14.40;99.90;;;;;;5136152;27;20319;-76
2021/08/15 04:56:57;;;;;;;13.30;7.80;;;14.30;99.90;;;;;;5136547;27;20216;-76
2021/08/15 04:59:24;;;;;;;13.53;7.23;;;14.40;99.90;;;;;;5136079;27;20204;-76
2021/08/15 05:01:52;;;;;;;14.03;7.83;;;14.40;99.90;;;;;;5135797;27;20204;-76
2021/08/15 05:04:19;;;;;;;14.60;7.53;;;14.30;99.90;;;;;;5136639;27;20280;-76
2021/08/15 05:06:46;;;;;;;14.77;7.50;;;14.40;99.90;;;;;;5136165;27;20347;-76
2021/08/15 05:09:13;;;;;;;13.93;7.67;;;14.40;99.90;;;;;;5135828;27;20767;-76
2021/08/15 05:11:41;;;;;;;12.27;7.27;;;14.40;99.90;;;;;;5136056;27;20314;-76
2021/08/15 05:14:09;;;;;;;15.77;7.40;;;14.40;99.90;;;;;;5135963;27;20308;-75
2021/08/15 05:16:36;;;;;;;13.33;7.60;;;14.40;99.90;;;;;;5135578;27;20673;-76
2021/08/15 05:19:04;;;;;;;13.07;7.43;;;14.30;99.90;;;;;;5135655;27;20201;-76
2021/08/15 05:21:31;;;;;;;17.03;8.20;;;14.40;99.90;;;;;;5136084;27;20197;-76
2021/08/15 05:23:58;;;;;;;13.30;7.37;;;14.40;99.90;;;;;;5135573;27;20603;-76
2021/08/15 05:26:25;;;;;;;16.70;7.47;;;14.40;99.90;;;;;;5120104;27;20213;-76
2021/08/15 05:28:52;;;;;;;16.57;7.70;;;14.50;99.90;;;;;;5115520;28;20288;-76
2021/08/15 05:31:21;;;;;;;13.97;7.90;;;14.50;99.90;;;;;;5114697;28;20293;-76
2021/08/15 05:33:48;;;;;;;14.20;7.97;;;14.70;99.90;;;;;;5115143;28;20224;-76
2021/08/15 05:36:15;;;;;;;15.17;7.80;;;14.70;99.90;;;;;;5115132;28;20296;-76
2021/08/15 05:38:42;;;;;;;13.27;7.77;;;14.90;99.90;;;;;;5114973;28;20198;-76
2021/08/15 05:41:08;;;;;;;12.70;8.07;;;14.90;99.90;;;;;;5115004;28;20284;-76
2021/08/15 05:43:35;;;;;;;16.43;7.17;;;15.10;99.90;;;;;;5114792;28;20220;-76
2021/08/15 05:46:02;;;;;;;13.07;7.30;;;15.20;99.90;;;;;;5114253;28;20618;-76
2021/08/15 05:48:31;;;;;;;11.07;6.57;;;15.40;99.90;;;;;;5115213;28;20189;-76
2021/08/15 05:50:58;;;;;;;13.20;6.63;;;15.70;99.90;;;;;;5115064;28;20204;-76
2021/08/15 05:53:25;;;;;;;9.77;6.07;;;;;;;;;;5114881;28;20257;-76
2021/08/15 05:55:53;;;;;;;10.33;6.13;;;;;;;;;;5114522;28;20320;-76
2021/08/15 05:58:23;;;;;;;11.73;6.40;;;;;;;;;;5115785;27;20197;-77
2021/08/15 06:00:54;;;;;;;9.83;6.20;;;;;;;;;;5134748;27;20193;-76
2021/08/15 06:03:24;;;;;;;10.27;6.10;;;;;;;;;;5134645;27;20288;-76
2021/08/15 06:05:55;;;;;;;9.43;5.70;;;;;;;;;;5135024;27;20227;-76
2021/08/15 06:08:24;;;;;;;10.97;5.67;;;;;;;;;;5135003;27;20307;-76
2021/08/15 06:10:56;;;;;;;9.37;5.40;;;;;;;;;;5135110;27;20292;-76
2021/08/15 06:13:25;;;;;;;9.77;5.10;;;;;;;;;;5134307;27;20284;-76
2021/08/15 06:15:52;;;;;;;9.25;5.25;;;;;;;;;;5135075;27;20284;-77
2021/08/15 06:18:19;;;;;;;11.00;5.15;;;;;;;;;;5134768;27;20284;-76
2021/08/15 06:20:46;;;;;;;9.32;4.78;;;;;;;;;;5134718;27;20596;-77
2021/08/15 06:23:15;;;;;;;10.98;4.57;;;;;;;;;;5134701;27;20229;-76
2021/08/15 06:25:42;;;;;;;9.05;5.35;;;;;;;;;;5130301;27;20216;-77
2021/08/15 06:28:09;;;;;;;10.43;5.30;;;;;;;;;;5114096;27;20225;-77
2021/08/15 06:30:36;;;;;;;8.43;4.22;;;;;;;;;;5113915;28;20289;-76
2021/08/15 06:33:05;;;;;;;9.10;4.57;;;;;;;;;;5114068;28;20280;-77
2021/08/15 06:35:33;;;;;;;6.68;4.13;;;;;;;;;;5113567;28;20700;-77
2021/08/15 06:38:00;;;;;;;8.10;4.43;;;;;;;;;;5113789;28;20697;-77
2021/08/15 06:40:29;;;;;;;8.73;4.07;;;;;;;;;;5113506;28;20263;-77
2021/08/15 06:43:05;;;;;;;6.28;3.80;;;;;;;;;;5113591;28;20732;-77
2021/08/15 06:45:33;;;;;;;8.65;4.22;;;;;;;;;;5113707;27;20205;-77
2021/08/15 06:48:00;;;;;;;7.90;4.00;;;;;;;;;;5113571;28;20202;-77
2021/08/15 06:50:27;;;;;;;7.28;4.03;;;;;;;;;;5113653;28;20237;-77
2021/08/15 06:52:54;;;;;;;5.30;3.40;;;;;;;;;;5113877;27;20301;-77
2021/08/15 06:55:22;;;;;;;9.23;4.53;;;;;;;;;;5113235;28;20238;-77
2021/08/15 06:57:50;;;;;;;7.30;4.13;;;;;;;;;;5112531;28;20280;-77
2021/08/15 07:00:18;;;;;;;5.88;3.65;;;;;;;;;;5119666;27;20211;-77
2021/08/15 07:02:48;;;;;;;8.15;3.95;;;;;;;;;;5133882;27;20292;-77
2021/08/15 07:05:15;;;;;;;7.25;3.83;;;;;;;;;;5133914;27;20199;-77
2021/08/15 07:07:42;;;;;;;4.93;3.42;;;;;;;;;;5134020;27;20288;-77
2021/08/15 07:10:10;;;;;;;6.85;3.60;;;;;;;;;;5133630;27;20639;-78
2021/08/15 07:12:37;;;;;;;6.45;3.83;;;;;;;;;;5133582;27;20224;-77
2021/08/15 07:15:07;;;;;;;5.72;4.00;;;;;;;;;;5133241;27;20823;-78
2021/08/15 07:17:37;;;;;;;5.32;3.40;;;;;;;;;;5133611;27;20220;-78
2021/08/15 07:20:06;;;;;;;5.43;3.63;;;;;;;;;;5133889;27;20192;-78
2021/08/15 07:22:33;;;;;;;5.95;3.80;;;;;;;;;;5133461;27;20666;-78
2021/08/15 07:25:01;;;;;;;6.82;3.70;;;;;;;;;;5133535;27;20303;-78
2021/08/15 07:27:29;;;;;;;5.25;3.50;;;;;;;;;;5123034;27;20625;-78
2021/08/15 07:29:56;;;;;;;4.93;3.65;;;;;;;;;;5112864;28;20204;-78
2021/08/15 07:32:24;;;;;;;5.10;3.95;;;;;;;;;;5112949;28;20288;-78
2021/08/15 07:34:52;;;;;;;7.75;3.75;;;;;;;;;;5112958;28;20227;-78
2021/08/15 07:37:19;;;;;;;5.72;3.88;;;;;;;;;;5111208;28;20202;-78
2021/08/15 07:39:46;;;;;;;5.07;3.95;;;;;;;;;;5112833;28;20233;-78
2021/08/15 07:42:13;;;;;;;5.45;3.95;;;;;;;;;;5112419;28;20293;-78
2021/08/15 07:44:41;;;;;;;4.82;3.85;;;;;;;;;;5112601;28;20288;-78
2021/08/15 07:47:08;;;;;;;5.10;4.25;;;;;;;;;;5113369;28;20606;-78
2021/08/15 07:49:36;;;;;;;5.15;4.07;;;;;;;;;;5112618;28;20732;-78
2021/08/15 07:52:04;;;;;;;5.72;5.00;;;;;;;;;;5112703;28;20251;-78
2021/08/15 07:54:31;;;;;;;7.60;5.13;;;;;;;;;;5112213;28;20232;-78
2021/08/15 07:56:59;;;;;;;6.63;5.63;;;;;;;;;;5112282;28;20288;-78
2021/08/15 07:59:26;;;;;;;9.20;5.53;;;;;;;;;;5112665;28;20194;-78
2021/08/15 08:01:54;;;;;;;8.90;5.90;;;;;;;;;;5112596;28;20292;-78
2021/08/15 08:04:21;;;;;;;6.90;5.18;;;;;;;;;;5112192;28;20561;-78
2021/08/15 08:06:50;;;;;;;7.65;5.68;;;;;;;;;;5112453;28;20289;-78
2021/08/15 08:09:17;;;;;;;7.00;5.45;;;;;;;;;;5116552;28;20262;-78
2021/08/15 08:11:44;;;;;;;10.48;6.05;;;;;;;;;;5116889;28;20288;-77
2021/08/15 08:14:11;;;;;;;6.82;5.20;;;;;;;;;;5116712;28;20321;-79
2021/08/15 08:16:38;;;;;;;7.95;6.07;;;;;;;;;;5116520;28;20197;-78
2021/08/15 08:19:05;;;;;;;7.68;5.80;;;;;;;;;;5116704;28;20328;-78
2021/08/15 08:21:33;;;;;;;7.80;5.85;;;;;;;;;;5116865;28;20304;-78
2021/08/15 08:24:06;;;;;;;9.85;6.30;;;;;;;;;;5116386;28;20197;-76
2021/08/15 08:26:33;;;;;;;8.20;6.43;;;;;;;;;;5116917;28;20310;-77
2021/08/15 08:29:00;;;;;;;10.25;7.45;;;;;;;;;;5129702;27;20236;-76
2021/08/15 08:31:28;;;;;;;10.45;7.40;;;;;;;;;;5137230;27;20624;-76
2021/08/15 08:33:55;;;;;;;8.27;7.10;;;;;;;;;;5137140;27;20689;-76
2021/08/15 08:36:23;;;;;;;8.65;6.50;;;;;;;;;;5136950;27;20203;-76
2021/08/15 08:38:50;;;;;;;10.55;7.82;;;;;;;;;;5136700;27;20201;-76
2021/08/15 08:41:20;;;;;;;9.00;7.40;;;;;;;;;;5136931;27;20303;-76
2021/08/15 08:43:47;;;;;;;9.15;7.40;;;;;;;;;;5136862;27;20197;-76
2021/08/15 08:46:14;;;;;;;9.98;8.13;;;;;;;;;;5136940;27;20215;-77
2021/08/15 08:48:42;;;;;;;11.05;7.28;;;;;;;;;;5136816;27;20225;-76
2021/08/15 08:51:09;;;;;;;8.13;6.60;;;;;;;;;;5136673;27;20288;-78
2021/08/15 08:53:38;;;;;;;8.55;6.95;;;;;;;;;;5136460;27;20294;-76
2021/08/15 08:56:05;;;;;;;7.65;6.10;;;;;;;;;;5136663;27;20308;-78
2021/08/15 08:58:34;;;;;;;8.40;6.07;;;;;;;;;;5137093;27;20203;-78
2021/08/15 09:01:01;;;;;;;7.47;6.45;;;;;;;;;;5126307;27;20292;-77
2021/08/15 09:03:29;;;;;;;6.93;5.95;;;;;;;;;;5115839;28;20285;-77
2021/08/15 09:05:56;;;;;;;10.93;7.30;;;;;;;;;;5116141;28;20194;-77
2021/08/15 09:08:33;;;;;;;10.15;6.78;;;;;;;;;;5115543;27;20723;-78
2021/08/15 09:11:24;;;;;;;9.38;6.50;;;;;;;;;;5115745;28;20202;-77
2021/08/15 09:14:05;;;;;;;9.95;7.55;;;;;;;;;;5105238;28;20237;-77
2021/08/15 09:16:55;;;;;;;9.85;7.32;;;;;;;;;;5115222;27;20310;-77
2021/08/15 09:19:26;;;;;;;12.20;8.20;;;;;;;;;;5115161;28;20244;-78
2021/08/15 09:21:55;;;;;;;9.60;7.53;;;;;;;;;;5115285;28;20237;-77
2021/08/15 09:24:22;;;;;;;9.07;6.50;;;;;;;;;;5115359;28;20285;-78
2021/08/15 09:26:55;;;;;;;9.68;6.47;;;;;;;;;;5115412;28;20308;-78
2021/08/15 09:29:24;;;;;;;8.85;6.80;;;;;;;;;;5115554;28;20288;-78
2021/08/15 09:31:51;;;;;;;9.73;6.55;;;;;;;;;;5115566;28;20285;-78
2021/08/15 09:34:26;;;;;;;8.98;6.25;;;;;;;;;;5115711;28;20236;-78
2021/08/15 09:36:53;;;;;;;8.05;6.15;;;;;;;;;;5115356;28;20207;-78
2021/08/15 09:39:31;;;;;;;8.10;6.65;;;;;;;;;;5115284;28;20300;-78
2021/08/15 09:41:58;;;;;;;9.23;6.90;;;;;;;;;;5115246;28;20288;-78
2021/08/15 09:44:27;;;;;;;8.40;6.88;;;;;;;;;;5115399;28;20288;-77
2021/08/15 09:46:58;;;;;;;8.38;6.35;;;;;;;;;;5115308;28;20201;-78
2021/08/15 09:49:26;;;;;;;10.85;7.18;;;;;;;;;;5115023;28;20289;-78
2021/08/15 09:51:53;;;;;;;7.97;6.05;;;;;;;;;;5114861;28;20281;-78
2021/08/15 09:54:20;;;;;;;7.78;5.90;;;;;;;;;;5114907;28;20735;-78
2021/08/15 09:56:48;;;;;;;8.75;6.00;;;;;;;;;;5114920;28;20284;-78
2021/08/15 09:59:15;;;;;;;10.38;5.75;;;;;;;;;;5114684;28;20338;-79
2021/08/15 10:01:45;;;;;;;7.68;5.90;;;;;;;;;;5114934;28;20240;-79
2021/08/15 10:04:12;;;;;;;7.68;6.63;;;;;;;;;;5114902;28;20197;-78
2021/08/15 10:06:40;;;;;;;8.30;5.50;;;;;;;;;;5114192;28;20609;-77
2021/08/15 10:09:08;;;;;;;7.45;5.95;;;;;;;;;;5114645;28;20218;-78
2021/08/15 10:11:36;;;;;;;7.47;5.68;;;;;;;;;;5114671;28;20201;-79
2021/08/15 10:14:04;;;;;;;6.25;5.13;;;;;;;;;;5114344;28;20912;-78
2021/08/15 10:16:32;;;;;;;6.63;5.50;;;;;;;;;;5114570;28;20218;-79
2021/08/15 10:19:02;;;;;;;7.65;4.78;;;;;;;;;;5114352;28;20198;-79
2021/08/15 10:21:30;;;;;;;8.55;5.55;;;;;;;;;;5114199;28;20198;-79
2021/08/15 10:24:07;;;;;;;6.22;5.63;;;;;;;;;;5114248;28;20288;-79
2021/08/15 10:26:47;;;;;;;6.68;5.28;;;;;;;;;;5114295;27;20309;-79
2021/08/15 10:29:36;;;;;;;5.35;4.35;;;;;;;;;;5114211;28;20193;-78
2021/08/15 10:32:10;;;;;;;5.90;4.40;;;;;;;;;;5113284;27;20213;-79
2021/08/15 10:34:57;;;;;;;4.47;3.78;;;;;;;;;;5113614;28;20287;-79
2021/08/15 10:37:36;;;;;;;4.55;4.00;;;;;;;;;;5114006;28;20197;-79
2021/08/15 10:40:04;;;;;;;5.18;4.68;;;;;;;;;;5113914;28;20280;-79
2021/08/15 10:42:44;;;;;;;5.32;4.70;;;;;;;;;;5114150;28;20379;-79
2021/08/15 10:45:13;;;;;;;5.53;4.88;;;;;;;;;;5113596;28;20190;-79
2021/08/15 10:47:41;;;;;;;7.20;4.75;;;;;;;;;;5113739;28;20204;-78
2021/08/15 10:50:09;;;;;;;6.10;5.50;;;;;;;;;;5113663;28;20700;-79
2021/08/15 10:52:38;;;;;;;5.95;5.40;;;;;;;;;;5113696;27;20280;-79
2021/08/15 10:55:07;;;;;;;9.40;6.53;;;;;;;;;;5113280;28;20239;-79
2021/08/15 10:57:46;;;;;;;10.07;9.00;;;;;;;;;;5113754;28;20274;-79
2021/08/15 11:00:32;;;;;;;5.05;4.55;;;;;;;;;;5114110;28;20212;-79
2021/08/15 11:02:59;;;;;;;3.42;3.10;;;;;;;;;;5131486;27;20201;-79
2021/08/15 11:05:35;;;;;;;3.90;3.60;;;;;;;;;;5133807;27;20192;-79
2021/08/15 11:08:04;;;;;;;3.67;3.00;;;;;;;;;;5133780;27;20200;-79
2021/08/15 11:10:46;;;;;;;4.05;3.53;;;;;;;;;;5133560;27;20283;-79
2021/08/15 11:13:16;;;;;;;3.60;3.10;;;;;;;;;;5133690;27;20291;-79
2021/08/15 11:15:43;;;;;;;4.15;2.80;;;;;;;;;;5133833;27;20266;-79
2021/08/15 11:18:11;;;;;;;3.17;2.88;;;;;;;;;;5133574;27;20197;-79
2021/08/15 11:20:43;;;;;;;3.65;3.00;;;;;;;;;;5133654;27;20201;-79
2021/08/15 11:23:13;;;;;;;3.30;2.60;;;;;;;;;;5133588;27;20284;-79
2021/08/15 11:25:41;;;;;;;2.50;2.08;;;;;;;;;;5133958;27;20262;-79
2021/08/15 11:28:08;;;;;;;2.30;2.10;;;;;;;;;;5133855;27;20284;-79
2021/08/15 11:30:36;;;;;;;4.15;2.20;;;;;;;;;;5133903;27;20201;-79
2021/08/15 11:33:07;;;;;;;2.60;2.33;;;;;;;;;;5133378;27;20200;-79
2021/08/15 11:35:35;;;;;;;2.05;1.70;;;;;;;;;;5133603;27;20648;-79
2021/08/15 11:38:02;;;;;;;2.92;2.65;;;;;;;;;;5133633;27;20197;-79
2021/08/15 11:40:32;;;;;;;3.75;3.45;;;;;;;;;;5133856;27;20595;-79
2021/08/15 11:43:01;;;;;;;2.15;1.83;;;;;;;;;;5133310;27;20291;-78
2021/08/15 11:45:29;;;;;;;2.60;2.40;;;;;;;;;;5133264;27;20211;-78
2021/08/15 11:47:56;;;;;;;2.90;2.30;;;;;;;;;;5133182;27;20197;-78
2021/08/15 11:50:23;;;;;;;2.75;2.00;;;;;;;;;;5133364;27;20194;-78
2021/08/15 11:52:51;;;;;;;2.78;1.52;;;;;;;;;;5133230;27;20289;-78
2021/08/15 11:55:20;;;;;;;1.63;1.50;;;;;;;;;;5132977;27;20241;-78
2021/08/15 11:57:50;;;;;;;1.73;1.48;;;;;;;;;;5133050;27;20220;-78
2021/08/15 12:00:17;;;;;;;2.60;2.28;;;;;;;;;;5133373;27;20287;-78
2021/08/15 12:02:59;;;;;;;2.55;1.63;;;;;;;;;;5132867;27;20253;-78
2021/08/15 12:05:26;;;;;;;1.63;1.52;;;;;;;;;;5133295;27;20284;-78
2021/08/15 12:07:54;;;;;;;2.83;1.65;;;;;;;;;;5133323;27;20303;-78
2021/08/15 12:10:25;;;;;;;2.10;1.48;;;;;;;;;;5132988;27;20652;-79
2021/08/15 12:13:11;;;;;;;1.80;1.45;;;;;;;;;;5132924;27;20303;-78
2021/08/15 12:15:40;;;;;;;1.75;1.50;;;;;;;;;;5133159;27;20277;-78
2021/08/15 12:18:07;;;;;;;1.70;1.60;;;;;;;;;;5132689;27;20283;-78
2021/08/15 12:20:43;;;;;;;1.88;1.50;;;;;;;;;;5133039;27;20276;-78
2021/08/15 12:23:10;;;;;;;1.83;1.63;;;;;;;;;;5133104;27;20212;-78
2021/08/15 12:25:38;;;;;;;1.75;1.65;;;;;;;;;;5133290;27;20189;-79
2021/08/15 12:28:09;;;;;;;2.70;1.73;;;;;;;;;;5132905;27;20292;-79
2021/08/15 12:30:36;;;;;;;2.88;1.50;;;;;;;;;;5132892;27;20201;-79
2021/08/15 12:33:18;;;;;;;1.55;1.30;;;;;;;;;;5133001;27;20236;-78
2021/08/15 12:35:47;;;;;;;1.80;1.60;;;;;;;;;;5132765;27;20256;-79
2021/08/15 12:38:26;;;;;;;1.40;1.30;;;;;;;;;;5132674;27;20279;-79
2021/08/15 12:40:53;;;;;;;1.40;1.30;;;;;;;;;;5132623;27;20203;-79
2021/08/15 12:43:24;;;;;;;1.10;1.00;;;;;;;;;;5133141;27;20300;-78
2021/08/15 12:45:52;;;;;;;1.52;1.00;;;;;;;;;;5132828;27;20288;-79
2021/08/15 12:48:20;;;;;;;1.50;1.40;;;;;;;;;;5133069;27;20244;-79
2021/08/15 12:50:58;;;;;;;1.42;1.02;;;;;;;;;;5133015;27;20201;-79
2021/08/15 12:53:32;;;;;;;2.47;1.63;;;;;;;;;;5133025;27;20201;-79
2021/08/15 12:56:13;;;;;;;1.27;1.10;;;;;;;;;;5135461;27;20256;-79
2021/08/15 12:58:41;;;;;;;1.27;1.17;;;;;;;;;;5136776;27;20303;-79
2021/08/15 13:01:08;;;;;;;1.52;1.38;;;;;;;;;;5136242;27;20225;-78
2021/08/15 13:03:35;;;;;;;1.35;1.25;;;;;;;;;;5128590;27;20281;-79
2021/08/15 13:06:06;;;;;;;2.28;1.08;;;;;;;;;;5115727;28;20222;-79
2021/08/15 13:08:33;;;;;;;1.75;1.25;;;;;;;;;;5115798;28;20218;-78
2021/08/15 13:11:01;;;;;;;1.35;1.25;;;;;;;;;;5115429;28;20205;-79
2021/08/15 13:13:28;;;;;;;1.90;1.25;;;;;;;;;;5115899;28;20620;-78
2021/08/15 13:15:55;;;;;;;1.30;1.20;;;;;;;;;;5115453;28;20634;-78
2021/08/15 13:18:22;;;;;;;0.85;0.85;;;;;;;;;;5115755;28;20293;-79
2021/08/15 13:20:50;;;;;;;1.05;0.95;;;;;;;;;;5115612;27;20198;-79
2021/08/15 13:23:18;;;;;;;3.05;1.08;;;;;;;;;;5115711;28;20322;-79
2021/08/15 13:25:49;;;;;;;1.20;1.10;;;;;;;;;;5115479;28;20285;-79
2021/08/15 13:28:19;;;;;;;1.40;1.10;;;;;;;;;;5115456;28;20277;-79
2021/08/15 13:30:46;;;;;;;1.10;1.00;;;;;;;;;;5115118;28;20225;-78
2021/08/15 13:33:13;;;;;;;1.05;0.93;;;;;;;;;;5115032;27;20552;-78
2021/08/15 13:35:41;;;;;;;1.45;1.00;;;;;;;;;;5115127;28;20208;-78
2021/08/15 13:38:08;;;;;;;1.02;1.00;;;;;;;;;;5115023;28;20622;-78
2021/08/15 13:40:37;;;;;;;1.40;1.10;;;;;;;;;;5115008;28;20655;-78
2021/08/15 13:43:05;;;;;;;1.83;1.15;;;;;;;;;;5114475;28;20663;-78
2021/08/15 13:45:32;;;;;;;1.10;1.00;;;;;;;;;;5115164;28;20233;-78
2021/08/15 13:47:59;;;;;;;1.02;0.93;;;;;;;;;;5114860;28;20284;-78
2021/08/15 13:50:26;;;;;;;1.42;0.82;;;;;;;;;;5115041;28;20244;-79
2021/08/15 13:52:54;;;;;;;1.08;1.00;;;;;;;;;;5114594;27;20719;-78
2021/08/15 13:55:21;;;;;;;1.20;1.10;;;;;;;;;;5114446;28;20328;-78
2021/08/15 13:57:50;;;;;;;0.88;0.80;;;;;;;;;;5114258;28;20312;-78
2021/08/15 14:00:17;;;;;;;1.77;1.00;;;;;;;;;;5114849;28;20229;-78
2021/08/15 14:02:45;;;;;;;1.00;0.90;;;;;;;;;;5114730;28;20285;-78
2021/08/15 14:05:13;;;;;;;0.80;0.80;;;;;;;;;;5133053;27;20199;-78
2021/08/15 14:07:41;;;;;;;0.90;0.65;;;;;;;;;;5135053;27;20212;-78
2021/08/15 14:10:08;;;;;;;1.00;0.80;;;;;;;;;;5134945;27;20903;-78
2021/08/15 14:12:36;;;;;;;0.88;0.80;;;;;;;;;;5134655;27;20201;-78
2021/08/15 14:15:04;;;;;;;0.90;0.70;;;;;;;;;;5134984;27;20624;-78
2021/08/15 14:17:32;;;;;;;0.70;0.70;;;;;;;;;;5135038;27;20227;-78
2021/08/15 14:19:59;;;;;;;1.05;0.70;;;;;;;;;;5134755;27;20228;-77
2021/08/15 14:22:26;;;;;;;0.80;0.80;;;;;;;;;;5134608;27;20689;-78
2021/08/15 14:24:53;;;;;;;0.82;0.65;;;;;;;;;;5134659;27;20284;-78
2021/08/15 14:27:21;;;;;;;1.05;0.70;;;;;;;;;;5134181;27;20850;-79
2021/08/15 14:29:49;;;;;;;0.77;0.70;;;;;;;;;;5134607;27;20201;-79
2021/08/15 14:32:17;;;;;;;1.33;0.80;;;;;;;;;;5134665;27;20549;-79